Time;durP1;ratioP1;P1;durP2;ratioP2;P2;SDS_P1;SDS_P2;PMS_P1;PMS_P2;Temp;Humidity;BMP_temperature;BMP_pressure;BME280_temperature;BME280_humidity;BME280_pressure;Samples;Min_cycle;Max_cycle;Signal;HPM_P1;HPM_P2
2021/04/06 00:01:43;;;;;;;3.05;0.98;;;13.60;87.80;;;;;;4812495;29;20642;-83
2021/04/06 00:04:15;;;;;;;2.08;1.30;;;13.60;87.70;;;;;;4810566;29;20055;-83
2021/04/06 00:06:48;;;;;;;1.83;0.70;;;13.60;87.90;;;;;;4804858;29;20050;-82
2021/04/06 00:09:19;;;;;;;1.92;1.30;;;13.70;87.70;;;;;;4813985;29;20573;-83
2021/04/06 00:11:49;;;;;;;1.60;1.00;;;13.70;87.70;;;;;;4811433;29;20045;-83
2021/04/06 00:14:18;;;;;;;1.52;1.00;;;13.60;87.40;;;;;;4812618;29;20124;-82
2021/04/06 00:16:47;;;;;;;2.00;0.82;;;13.60;87.40;;;;;;4827750;29;20389;-84
2021/04/06 00:19:18;;;;;;;2.08;0.90;;;13.60;87.10;;;;;;4811970;29;20642;-83
2021/04/06 00:21:50;;;;;;;2.15;0.85;;;13.60;87.00;;;;;;4812242;29;20057;-82
2021/04/06 00:24:20;;;;;;;1.38;0.95;;;13.60;86.50;;;;;;4813228;29;20164;-83
2021/04/06 00:26:50;;;;;;;1.15;0.63;;;13.60;86.40;;;;;;4812601;29;20345;-83
2021/04/06 00:29:21;;;;;;;1.48;0.70;;;13.60;86.30;;;;;;4815446;29;20070;-83
2021/04/06 00:31:52;;;;;;;2.13;1.25;;;13.60;86.30;;;;;;4814222;29;20517;-83
2021/04/06 00:34:22;;;;;;;1.92;0.60;;;13.60;87.20;;;;;;4813440;29;20075;-84
2021/04/06 00:36:53;;;;;;;2.63;1.08;;;13.50;87.10;;;;;;4808845;29;20581;-83
2021/04/06 00:39:29;;;;;;;1.42;0.73;;;13.50;86.90;;;;;;4810626;29;20061;-84
2021/04/06 00:42:03;;;;;;;1.77;0.80;;;13.60;86.90;;;;;;4815172;29;20054;-83
2021/04/06 00:44:32;;;;;;;2.05;1.02;;;13.60;86.80;;;;;;4795843;29;20046;-83
2021/04/06 00:47:00;;;;;;;2.38;0.88;;;13.60;86.80;;;;;;4807411;29;20053;-83
2021/04/06 00:49:29;;;;;;;4.28;1.30;;;13.60;87.10;;;;;;4809554;29;20770;-83
2021/04/06 00:51:57;;;;;;;2.20;0.95;;;13.60;87.20;;;;;;4814943;29;20042;-83
2021/04/06 00:54:25;;;;;;;2.05;0.90;;;13.60;87.30;;;;;;4812207;29;20137;-83
2021/04/06 00:56:59;;;;;;;2.08;1.63;;;13.60;87.20;;;;;;4813081;29;20072;-83
2021/04/06 00:59:27;;;;;;;1.90;0.95;;;13.60;87.50;;;;;;4814706;29;20584;-83
2021/04/06 01:01:59;;;;;;;2.85;0.90;;;13.60;87.60;;;;;;4812282;29;20123;-82
2021/04/06 01:04:29;;;;;;;1.17;0.75;;;13.60;87.80;;;;;;4810472;29;20104;-83
2021/04/06 01:07:04;;;;;;;1.35;0.90;;;13.60;87.60;;;;;;4818710;29;20069;-84
2021/04/06 01:09:36;;;;;;;3.05;1.20;;;13.60;87.70;;;;;;4796046;29;20512;-83
2021/04/06 01:12:06;;;;;;;2.33;0.95;;;13.50;87.60;;;;;;4811784;29;20122;-81
2021/04/06 01:14:36;;;;;;;1.25;0.90;;;13.50;87.80;;;;;;4787672;29;20071;-83
2021/04/06 01:17:05;;;;;;;3.90;0.90;;;13.60;88.00;;;;;;4812174;29;20412;-84
2021/04/06 01:19:35;;;;;;;2.25;1.15;;;13.60;88.00;;;;;;4808630;29;20050;-83
2021/04/06 01:22:06;;;;;;;3.60;0.73;;;13.50;88.10;;;;;;4807990;29;20103;-82
2021/04/06 01:24:36;;;;;;;1.85;0.90;;;13.60;88.20;;;;;;4809310;29;20054;-83
2021/04/06 01:27:07;;;;;;;2.03;1.30;;;13.50;88.20;;;;;;4809843;29;20317;-82
2021/04/06 01:29:35;;;;;;;3.03;1.00;;;13.50;88.90;;;;;;4805066;29;20501;-83
2021/04/06 01:32:04;;;;;;;2.97;0.90;;;13.40;89.30;;;;;;4808154;29;20062;-82
2021/04/06 01:34:32;;;;;;;3.22;1.25;;;13.40;89.30;;;;;;4811445;29;20578;-83
2021/04/06 01:37:00;;;;;;;1.50;0.63;;;13.30;89.50;;;;;;4810571;29;20058;-82
2021/04/06 01:39:29;;;;;;;3.55;1.52;;;13.30;89.30;;;;;;4823963;29;20467;-84
2021/04/06 01:42:04;;;;;;;2.92;0.75;;;13.30;89.00;;;;;;4812987;29;20043;-82
2021/04/06 01:44:36;;;;;;;2.00;1.13;;;13.30;88.80;;;;;;4818398;29;20140;-83
2021/04/06 01:47:05;;;;;;;3.28;1.15;;;13.20;89.00;;;;;;4811929;29;20049;-83
2021/04/06 01:49:34;;;;;;;3.13;0.88;;;13.20;89.10;;;;;;4829433;29;20134;-84
2021/04/06 01:52:02;;;;;;;2.70;0.93;;;13.20;89.50;;;;;;4802086;29;20046;-83
2021/04/06 01:54:30;;;;;;;2.40;1.23;;;13.10;90.20;;;;;;4837212;29;20519;-84
2021/04/06 01:57:05;;;;;;;3.50;1.00;;;13.10;90.30;;;;;;4816643;29;20211;-84
2021/04/06 01:59:37;;;;;;;1.85;1.13;;;13.10;90.40;;;;;;4821510;29;20107;-81
2021/04/06 02:02:05;;;;;;;2.22;0.88;;;13.20;90.60;;;;;;4814048;29;20523;-83
2021/04/06 02:04:32;;;;;;;2.47;1.08;;;13.20;90.20;;;;;;4819027;29;20034;-83
2021/04/06 02:07:05;;;;;;;5.30;1.27;;;13.10;90.50;;;;;;4814212;29;20046;-83
2021/04/06 02:09:35;;;;;;;3.00;1.08;;;13.10;90.70;;;;;;4819742;29;20058;-83
2021/04/06 02:12:10;;;;;;;1.77;0.82;;;13.10;90.50;;;;;;4805778;29;20050;-77
2021/04/06 02:14:38;;;;;;;2.63;1.00;;;13.10;90.30;;;;;;4836402;24;20058;-76
2021/04/06 02:17:06;;;;;;;3.08;1.42;;;13.10;90.10;;;;;;4819248;29;20051;-76
2021/04/06 02:19:36;;;;;;;2.40;1.45;;;13.10;90.00;;;;;;4795632;29;20061;-76
2021/04/06 02:22:06;;;;;;;1.45;0.80;;;13.00;90.00;;;;;;4812381;29;20058;-76
2021/04/06 02:24:36;;;;;;;3.97;1.08;;;12.90;90.30;;;;;;4813100;29;20185;-76
2021/04/06 02:27:08;;;;;;;2.13;1.10;;;13.00;89.90;;;;;;4809961;29;20046;-76
2021/04/06 02:29:39;;;;;;;3.30;1.00;;;13.00;89.70;;;;;;4828347;29;20047;-77
2021/04/06 02:32:10;;;;;;;2.80;1.08;;;13.00;89.50;;;;;;4814869;29;20050;-76
2021/04/06 02:34:40;;;;;;;1.75;0.77;;;13.00;89.30;;;;;;4808480;29;20107;-76
2021/04/06 02:37:14;;;;;;;3.28;1.08;;;13.00;89.50;;;;;;4793733;29;20451;-76
2021/04/06 02:39:41;;;;;;;3.42;0.95;;;13.10;89.30;;;;;;4811113;29;20060;-76
2021/04/06 02:42:26;;;;;;;2.95;1.50;;;13.10;89.20;;;;;;4795444;29;20050;-76
2021/04/06 02:44:56;;;;;;;1.75;1.05;;;13.10;89.10;;;;;;4814537;29;20062;-76
2021/04/06 02:47:25;;;;;;;2.97;1.13;;;13.10;89.10;;;;;;4809550;29;20050;-76
2021/04/06 02:49:53;;;;;;;2.80;0.82;;;13.10;89.10;;;;;;4810511;29;20035;-77
2021/04/06 02:52:21;;;;;;;2.00;0.90;;;13.10;89.00;;;;;;4810115;29;20451;-76
2021/04/06 02:54:49;;;;;;;1.85;0.90;;;13.20;89.00;;;;;;4809871;29;20137;-76
2021/04/06 02:57:21;;;;;;;2.05;0.90;;;13.10;89.10;;;;;;4808680;29;20053;-76
2021/04/06 02:59:50;;;;;;;2.38;0.95;;;13.00;89.50;;;;;;4814217;29;20042;-76
2021/04/06 03:02:18;;;;;;;2.85;1.33;;;13.00;89.80;;;;;;4812291;29;20069;-76
2021/04/06 03:04:47;;;;;;;3.28;1.00;;;13.00;90.20;;;;;;4806405;29;20047;-76
2021/04/06 03:07:18;;;;;;;1.45;0.80;;;12.90;90.50;;;;;;4812404;29;20062;-75
2021/04/06 03:09:50;;;;;;;1.55;1.00;;;12.90;90.50;;;;;;4819268;29;20102;-76
2021/04/06 03:12:18;;;;;;;3.40;1.10;;;13.00;90.30;;;;;;4810185;29;20058;-76
2021/04/06 03:14:47;;;;;;;3.10;1.10;;;13.00;90.10;;;;;;4811118;29;20043;-76
2021/04/06 03:17:16;;;;;;;2.28;1.23;;;13.00;90.00;;;;;;4820444;29;20500;-75
2021/04/06 03:19:44;;;;;;;1.42;0.90;;;13.00;90.00;;;;;;4810369;29;20046;-76
2021/04/06 03:22:13;;;;;;;2.15;1.08;;;13.00;90.00;;;;;;4807400;29;20125;-76
2021/04/06 03:24:41;;;;;;;3.15;1.05;;;13.10;89.50;;;;;;4824886;29;20670;-76
2021/04/06 03:27:08;;;;;;;2.05;1.13;;;13.00;89.50;;;;;;4800182;29;20049;-76
2021/04/06 03:29:36;;;;;;;1.27;0.75;;;12.90;90.00;;;;;;4808334;29;20038;-76
2021/04/06 03:32:04;;;;;;;2.55;1.00;;;13.00;90.20;;;;;;4808472;29;20058;-75
2021/04/06 03:34:34;;;;;;;2.55;1.20;;;13.00;90.00;;;;;;4807155;29;20070;-76
2021/04/06 03:37:03;;;;;;;2.08;1.00;;;13.00;90.00;;;;;;4810206;29;20046;-76
2021/04/06 03:39:32;;;;;;;1.73;0.85;;;13.00;89.90;;;;;;4826336;29;20095;-76
2021/04/06 03:42:00;;;;;;;2.80;0.80;;;13.00;90.00;;;;;;4824654;29;20047;-76
2021/04/06 03:44:30;;;;;;;1.48;0.70;;;12.90;90.10;;;;;;4805038;29;20067;-76
2021/04/06 03:46:59;;;;;;;4.07;1.15;;;12.90;90.10;;;;;;4816717;29;20043;-76
2021/04/06 03:49:28;;;;;;;3.15;1.00;;;12.90;90.30;;;;;;4809871;29;20046;-77
2021/04/06 03:51:58;;;;;;;1.42;0.90;;;12.90;90.30;;;;;;4825371;29;20098;-77
2021/04/06 03:54:43;;;;;;;2.95;0.98;;;12.90;90.20;;;;;;4796635;29;20058;-76
2021/04/06 03:57:33;;;;;;;1.50;0.90;;;13.00;90.10;;;;;;4813826;29;20050;-77
2021/04/06 04:00:07;;;;;;;2.42;0.80;;;13.00;90.00;;;;;;4797193;29;20077;-76
2021/04/06 04:02:35;;;;;;;3.53;0.93;;;13.10;89.70;;;;;;4797152;29;20103;-77
2021/04/06 04:05:04;;;;;;;1.92;0.93;;;13.10;89.70;;;;;;4809125;29;20069;-76
2021/04/06 04:07:34;;;;;;;1.75;0.63;;;13.00;89.50;;;;;;4807740;29;20405;-76
2021/04/06 04:10:02;;;;;;;1.75;0.90;;;13.00;89.80;;;;;;4810796;29;20045;-76
2021/04/06 04:12:29;;;;;;;1.67;0.60;;;13.00;89.70;;;;;;4814544;29;20057;-74
2021/04/06 04:14:58;;;;;;;1.63;0.77;;;13.00;89.60;;;;;;4808403;29;20050;-76
2021/04/06 04:17:25;;;;;;;2.40;0.82;;;12.90;89.60;;;;;;4790950;29;20133;-76
2021/04/06 04:19:53;;;;;;;0.70;0.40;;;12.90;89.80;;;;;;4805969;29;21276;-76
2021/04/06 04:22:21;;;;;;;2.95;0.80;;;12.90;89.80;;;;;;4809449;29;20074;-77
2021/04/06 04:24:49;;;;;;;2.03;0.45;;;12.90;89.70;;;;;;4806474;29;20432;-76
2021/04/06 04:27:17;;;;;;;2.65;0.60;;;12.90;89.80;;;;;;4813483;29;20046;-77
2021/04/06 04:29:44;;;;;;;0.85;0.40;;;12.90;89.80;;;;;;4808993;29;20501;-77
2021/04/06 04:32:13;;;;;;;2.00;0.43;;;12.90;90.10;;;;;;4810409;29;20051;-77
2021/04/06 04:34:41;;;;;;;1.70;0.55;;;13.00;90.00;;;;;;4828342;29;20118;-77
2021/04/06 04:37:10;;;;;;;2.13;0.70;;;12.90;90.20;;;;;;4795420;29;20051;-77
2021/04/06 04:39:42;;;;;;;3.08;0.68;;;12.90;90.20;;;;;;4808546;29;20413;-77
2021/04/06 04:42:30;;;;;;;2.72;0.43;;;12.90;90.20;;;;;;4814935;29;20718;-76
2021/04/06 04:44:58;;;;;;;4.65;0.77;;;12.90;90.50;;;;;;4806303;29;20487;-76
2021/04/06 04:47:25;;;;;;;1.55;0.50;;;13.00;90.40;;;;;;4814032;29;20042;-76
2021/04/06 04:49:53;;;;;;;1.13;0.70;;;13.00;90.60;;;;;;4811565;29;20046;-77
2021/04/06 04:52:20;;;;;;;2.47;0.50;;;13.00;90.50;;;;;;4814863;29;20274;-77
2021/04/06 04:54:48;;;;;;;3.13;0.77;;;13.00;90.50;;;;;;4796234;29;20069;-77
2021/04/06 04:57:15;;;;;;;1.60;0.77;;;13.00;90.50;;;;;;4810630;29;20062;-77
2021/04/06 04:59:44;;;;;;;2.60;0.80;;;13.00;90.60;;;;;;4807103;29;20091;-76
2021/04/06 05:02:11;;;;;;;2.63;0.60;;;13.00;90.80;;;;;;4814598;29;20056;-76
2021/04/06 05:04:39;;;;;;;4.45;0.60;;;12.90;91.10;;;;;;4816162;29;20381;-77
2021/04/06 05:07:06;;;;;;;3.17;0.90;;;12.90;91.00;;;;;;4812389;29;20444;-77
2021/04/06 05:09:34;;;;;;;2.60;0.77;;;13.00;91.20;;;;;;4808509;29;20521;-76
2021/04/06 05:12:02;;;;;;;3.35;0.82;;;12.90;91.30;;;;;;4823653;29;20548;-76
2021/04/06 05:14:29;;;;;;;1.67;0.73;;;12.90;91.50;;;;;;4808747;29;20059;-76
2021/04/06 05:16:58;;;;;;;2.78;0.77;;;12.90;91.50;;;;;;4811157;29;20137;-76
2021/04/06 05:19:25;;;;;;;5.53;1.00;;;12.90;91.10;;;;;;4805652;29;20043;-77
2021/04/06 05:21:53;;;;;;;4.13;1.08;;;12.90;91.00;;;;;;4791824;29;20058;-77
2021/04/06 05:24:21;;;;;;;6.55;1.10;;;12.90;91.30;;;;;;4808742;29;20119;-76
2021/04/06 05:26:48;;;;;;;9.02;1.25;;;12.90;91.20;;;;;;4810702;29;20043;-77
2021/04/06 05:29:16;;;;;;;5.32;1.00;;;12.90;91.00;;;;;;4811727;29;20168;-77
2021/04/06 05:31:44;;;;;;;1.95;0.82;;;13.00;90.90;;;;;;4797076;29;20140;-77
2021/04/06 05:34:13;;;;;;;4.38;1.00;;;12.90;91.10;;;;;;4807832;29;20063;-76
2021/04/06 05:36:41;;;;;;;2.85;1.08;;;13.00;91.10;;;;;;4797279;29;20042;-77
2021/04/06 05:39:09;;;;;;;2.35;0.73;;;12.90;91.30;;;;;;4812281;29;20051;-74
2021/04/06 05:41:41;;;;;;;1.85;0.70;;;12.90;91.50;;;;;;4815657;29;20050;-77
2021/04/06 05:44:11;;;;;;;2.90;0.93;;;12.90;91.80;;;;;;4793421;29;20154;-77
2021/04/06 05:46:40;;;;;;;3.67;1.25;;;12.90;91.90;;;;;;4813629;29;20045;-77
2021/04/06 05:49:10;;;;;;;3.08;0.98;;;13.00;92.00;;;;;;4811642;29;20525;-77
2021/04/06 05:51:40;;;;;;;3.83;0.90;;;13.00;92.10;;;;;;4825183;29;20451;-77
2021/04/06 05:54:10;;;;;;;4.40;1.13;;;13.00;92.20;;;;;;4812399;29;20073;-77
2021/04/06 05:56:38;;;;;;;3.47;0.90;;;13.00;92.60;;;;;;4813169;29;20428;-78
2021/04/06 05:59:06;;;;;;;7.53;1.10;;;13.00;93.00;;;;;;4823627;29;20505;-78
2021/04/06 06:01:38;;;;;;;6.07;1.08;;;13.00;92.80;;;;;;4809948;29;20196;-78
2021/04/06 06:04:08;;;;;;;6.78;1.40;;;13.00;92.80;;;;;;4807382;29;20051;-77
2021/04/06 06:06:36;;;;;;;2.90;1.17;;;13.10;92.60;;;;;;4812715;29;21128;-77
2021/04/06 06:09:07;;;;;;;5.80;1.50;;;13.10;92.60;;;;;;4808269;29;20522;-78
2021/04/06 06:11:56;;;;;;;4.72;1.27;;;13.20;92.40;;;;;;4811081;29;20159;-78
2021/04/06 06:14:28;;;;;;;5.07;1.42;;;13.20;92.50;;;;;;4811644;29;20140;-78
2021/04/06 06:16:56;;;;;;;2.92;1.40;;;13.20;92.50;;;;;;4792507;29;20050;-78
2021/04/06 06:19:32;;;;;;;5.78;1.42;;;13.20;92.60;;;;;;4794397;29;20053;-78
2021/04/06 06:22:11;;;;;;;3.03;0.93;;;13.20;92.90;;;;;;4809544;29;20113;-77
2021/04/06 06:24:43;;;;;;;2.17;1.08;;;13.20;93.10;;;;;;4810088;29;20053;-77
2021/04/06 06:27:34;;;;;;;4.22;1.20;;;13.10;93.10;;;;;;4806179;29;20130;-77
2021/04/06 06:30:19;;;;;;;4.47;1.40;;;13.20;93.10;;;;;;4824002;29;20050;-78
2021/04/06 06:32:47;;;;;;;2.88;1.30;;;13.20;93.20;;;;;;4805916;29;20061;-78
2021/04/06 06:35:34;;;;;;;4.93;1.30;;;13.10;93.60;;;;;;4808376;29;20070;-77
2021/04/06 06:38:16;;;;;;;4.65;1.40;;;13.10;93.90;;;;;;4796326;29;20050;-78
2021/04/06 06:40:45;;;;;;;3.53;1.20;;;13.10;94.20;;;;;;4817624;29;20049;-78
2021/04/06 06:43:14;;;;;;;3.65;1.30;;;13.20;94.40;;;;;;4801875;29;20058;-77
2021/04/06 06:45:44;;;;;;;6.35;1.50;;;13.20;94.50;;;;;;4814156;29;20046;-78
2021/04/06 06:48:25;;;;;;;3.92;1.30;;;13.20;94.80;;;;;;4795769;29;20038;-78
2021/04/06 06:50:53;;;;;;;6.90;2.03;;;13.20;95.00;;;;;;4815912;29;20073;-78
2021/04/06 06:53:37;;;;;;;4.57;1.92;;;13.20;95.30;;;;;;4797043;29;20057;-77
2021/04/06 06:56:09;;;;;;;11.40;4.18;;;13.30;95.20;;;;;;4811473;29;20338;-76
2021/04/06 06:58:41;;;;;;;4.03;2.30;;;13.30;95.20;;;;;;4813100;29;20047;-78
2021/04/06 07:01:21;;;;;;;10.63;2.92;;;13.30;95.10;;;;;;4810444;29;20050;-78
2021/04/06 07:04:02;;;;;;;8.13;3.33;;;13.40;95.20;;;;;;4809009;29;20054;-78
2021/04/06 07:06:30;;;;;;;4.97;3.20;;;13.40;95.10;;;;;;4810994;29;20589;-77
2021/04/06 07:08:57;;;;;;;7.15;2.90;;;13.50;94.90;;;;;;4817516;29;20054;-77
2021/04/06 07:11:30;;;;;;;5.00;2.70;;;13.60;94.70;;;;;;4824004;29;20522;-77
2021/04/06 07:13:59;;;;;;;4.28;2.78;;;13.60;94.70;;;;;;4814153;29;20059;-78
2021/04/06 07:16:30;;;;;;;5.63;2.80;;;13.60;94.70;;;;;;4812081;29;20050;-78
2021/04/06 07:18:58;;;;;;;7.45;3.03;;;13.70;94.80;;;;;;4812598;29;20600;-77
2021/04/06 07:21:27;;;;;;;5.43;2.67;;;13.80;94.60;;;;;;4807497;29;20038;-76
2021/04/06 07:24:02;;;;;;;6.38;2.65;;;13.90;94.60;;;;;;4810941;29;20058;-77
2021/04/06 07:26:32;;;;;;;5.17;3.03;;;13.90;94.60;;;;;;4819785;29;20046;-79
2021/04/06 07:29:01;;;;;;;6.03;2.83;;;13.90;94.90;;;;;;4808825;29;20053;-77
2021/04/06 07:31:28;;;;;;;7.57;2.53;;;13.90;94.90;;;;;;4816510;29;20097;-76
2021/04/06 07:33:58;;;;;;;5.38;2.30;;;14.00;95.00;;;;;;4835629;29;20053;-75
2021/04/06 07:36:26;;;;;;;4.32;2.60;;;14.20;95.40;;;;;;4792379;29;20161;-78
2021/04/06 07:38:56;;;;;;;7.20;2.80;;;14.20;95.10;;;;;;4815074;29;20281;-79
2021/04/06 07:41:27;;;;;;;6.40;2.80;;;14.30;94.60;;;;;;4809673;29;20416;-80
2021/04/06 07:43:58;;;;;;;7.28;2.97;;;14.40;94.50;;;;;;4811588;29;20524;-78
2021/04/06 07:46:41;;;;;;;8.15;3.15;;;14.50;94.50;;;;;;4813804;29;20584;-78
2021/04/06 07:49:11;;;;;;;8.38;3.17;;;14.60;94.50;;;;;;4811174;29;20066;-79
2021/04/06 07:51:47;;;;;;;8.63;2.80;;;14.60;94.30;;;;;;4812859;29;20103;-77
2021/04/06 07:54:16;;;;;;;13.10;2.55;;;14.70;94.50;;;;;;4819159;29;20057;-80
2021/04/06 07:56:50;;;;;;;6.20;2.78;;;14.70;94.20;;;;;;4808412;29;20042;-79
2021/04/06 07:59:43;;;;;;;6.20;2.95;;;14.80;94.10;;;;;;4806853;29;20055;-79
2021/04/06 08:02:29;;;;;;;5.68;2.72;;;14.90;93.70;;;;;;4795163;29;20082;-80
2021/04/06 08:05:00;;;;;;;5.90;3.00;;;14.80;94.30;;;;;;4808019;29;20066;-83
2021/04/06 08:07:32;;;;;;;5.15;2.80;;;14.60;95.50;;;;;;4821246;29;20055;-76
2021/04/06 08:10:02;;;;;;;4.43;2.67;;;14.60;95.80;;;;;;4804592;29;20050;-79
2021/04/06 08:12:33;;;;;;;5.80;2.47;;;14.60;95.80;;;;;;4825473;29;20608;-79
2021/04/06 08:15:05;;;;;;;4.80;2.53;;;14.70;95.50;;;;;;4813783;29;20058;-80
2021/04/06 08:17:49;;;;;;;5.90;2.40;;;14.70;95.30;;;;;;4807633;29;20058;-74
2021/04/06 08:20:21;;;;;;;5.70;2.50;;;14.70;94.90;;;;;;4809293;29;20042;-76
2021/04/06 08:22:54;;;;;;;7.28;2.33;;;14.70;94.30;;;;;;4809832;29;20455;-75
2021/04/06 08:25:39;;;;;;;7.38;2.75;;;15.00;94.00;;;;;;4808975;29;20042;-78
2021/04/06 08:28:25;;;;;;;5.20;2.63;;;15.30;93.00;;;;;;4827542;29;20058;-78
2021/04/06 08:31:29;;;;;;;7.97;2.30;;;15.30;92.50;;;;;;4805537;29;20123;-78
2021/04/06 08:34:26;;;;;;;5.97;2.28;;;15.30;92.40;;;;;;4795511;29;20686;-77
2021/04/06 08:37:10;;;;;;;4.78;2.20;;;15.30;92.40;;;;;;4805710;29;20051;-77
2021/04/06 08:39:39;;;;;;;4.43;2.42;;;15.40;92.20;;;;;;4794676;29;20078;-77
2021/04/06 08:42:10;;;;;;;5.85;2.42;;;15.40;92.10;;;;;;4810201;29;20077;-78
2021/04/06 08:44:38;;;;;;;6.25;2.13;;;15.60;91.90;;;;;;4804628;29;20517;-77
2021/04/06 08:47:07;;;;;;;5.60;1.95;;;15.70;91.30;;;;;;4795751;29;20532;-78
2021/04/06 08:49:41;;;;;;;4.53;2.03;;;15.90;91.20;;;;;;4814024;29;20099;-78
2021/04/06 08:52:14;;;;;;;5.93;1.95;;;16.10;90.10;;;;;;4797360;29;20058;-76
2021/04/06 08:54:42;;;;;;;5.75;2.20;;;16.20;90.10;;;;;;4810689;29;20704;-78
2021/04/06 08:57:10;;;;;;;6.53;2.10;;;16.40;89.90;;;;;;4805929;29;20408;-77
2021/04/06 08:59:43;;;;;;;9.73;2.30;;;16.40;89.40;;;;;;4820662;29;20058;-77
2021/04/06 09:02:16;;;;;;;5.53;2.30;;;16.40;89.00;;;;;;4818404;29;20042;-76
2021/04/06 09:04:47;;;;;;;6.60;2.30;;;16.50;89.30;;;;;;4795878;29;20138;-75
2021/04/06 09:07:21;;;;;;;6.35;2.65;;;16.60;89.20;;;;;;4805054;29;20054;-76
2021/04/06 09:09:55;;;;;;;9.80;3.00;;;16.60;89.00;;;;;;4810640;29;20042;-75
2021/04/06 09:12:24;;;;;;;6.38;2.38;;;16.50;89.10;;;;;;4792208;29;20054;-76
2021/04/06 09:14:52;;;;;;;6.75;2.58;;;16.50;89.20;;;;;;4807293;29;20126;-77
2021/04/06 09:17:26;;;;;;;6.05;2.08;;;16.50;89.40;;;;;;4787349;29;20416;-78
2021/04/06 09:19:54;;;;;;;11.30;2.70;;;16.60;88.90;;;;;;4793173;29;20138;-78
2021/04/06 09:22:22;;;;;;;5.30;2.05;;;16.70;89.10;;;;;;4805353;29;20885;-79
2021/04/06 09:24:51;;;;;;;8.82;2.38;;;16.70;88.70;;;;;;4790628;29;20054;-78
2021/04/06 09:27:20;;;;;;;5.47;2.13;;;16.80;88.40;;;;;;4822447;29;20327;-76
2021/04/06 09:29:50;;;;;;;6.82;2.40;;;16.90;88.80;;;;;;4808556;29;20141;-78
2021/04/06 09:32:19;;;;;;;7.07;2.92;;;16.90;88.50;;;;;;4809988;29;20042;-75
2021/04/06 09:34:50;;;;;;;6.75;2.75;;;16.90;88.10;;;;;;4792782;29;20586;-77
2021/04/06 09:37:20;;;;;;;7.93;3.33;;;16.90;88.70;;;;;;4808291;29;20049;-78
2021/04/06 09:39:51;;;;;;;9.55;2.47;;;17.10;88.10;;;;;;4805923;29;20534;-78
2021/04/06 09:42:19;;;;;;;7.75;2.80;;;17.00;87.90;;;;;;4823145;29;20063;-78
2021/04/06 09:44:48;;;;;;;7.35;2.70;;;17.00;87.90;;;;;;4798192;29;20496;-77
2021/04/06 09:47:18;;;;;;;5.45;2.88;;;17.00;88.20;;;;;;4810919;29;20073;-77
2021/04/06 09:49:50;;;;;;;7.07;2.63;;;17.20;88.30;;;;;;4807340;29;20135;-78
2021/04/06 09:52:19;;;;;;;11.00;2.67;;;17.30;87.90;;;;;;4809982;29;20049;-77
2021/04/06 09:54:53;;;;;;;5.53;2.20;;;17.40;87.30;;;;;;4806577;29;20429;-78
2021/04/06 09:57:31;;;;;;;5.97;2.90;;;17.50;87.70;;;;;;4807468;29;20057;-76
2021/04/06 10:00:00;;;;;;;8.10;2.97;;;17.80;87.10;;;;;;4808123;29;20435;-78
2021/04/06 10:02:29;;;;;;;7.47;2.63;;;17.90;86.30;;;;;;4813703;29;20514;-76
2021/04/06 10:04:57;;;;;;;9.10;3.20;;;18.10;85.70;;;;;;4805542;29;20047;-77
2021/04/06 10:07:26;;;;;;;8.25;3.35;;;18.30;85.50;;;;;;4814830;29;20505;-75
2021/04/06 10:09:57;;;;;;;10.90;2.88;;;18.10;86.30;;;;;;4793404;29;20050;-75
2021/04/06 10:12:26;;;;;;;6.85;3.03;;;18.20;86.60;;;;;;4812926;29;20046;-75
2021/04/06 10:14:55;;;;;;;10.82;3.17;;;18.20;86.50;;;;;;4809240;29;20058;-75
2021/04/06 10:17:35;;;;;;;5.93;3.22;;;18.30;85.70;;;;;;4809432;29;20051;-76
2021/04/06 10:20:07;;;;;;;7.97;3.03;;;18.20;85.80;;;;;;4814689;29;20054;-75
2021/04/06 10:22:40;;;;;;;6.82;2.70;;;18.20;86.10;;;;;;4816522;29;20050;-77
2021/04/06 10:25:12;;;;;;;7.75;2.78;;;18.20;85.90;;;;;;4813888;29;20053;-74
2021/04/06 10:27:41;;;;;;;6.70;2.40;;;18.10;85.70;;;;;;4809875;29;20046;-73
2021/04/06 10:30:12;;;;;;;7.80;2.50;;;18.00;86.20;;;;;;4809565;29;20409;-74
2021/04/06 10:32:43;;;;;;;7.95;2.47;;;18.10;86.00;;;;;;4809920;29;20050;-74
2021/04/06 10:35:21;;;;;;;7.40;3.05;;;18.00;86.00;;;;;;4809835;29;20102;-74
2021/04/06 10:38:00;;;;;;;10.65;2.70;;;18.20;86.10;;;;;;4793329;29;20119;-75
2021/04/06 10:40:33;;;;;;;5.47;2.67;;;18.20;85.60;;;;;;4809873;29;20070;-75
2021/04/06 10:43:10;;;;;;;6.70;2.53;;;18.30;85.60;;;;;;4810757;29;20080;-75
2021/04/06 10:45:41;;;;;;;7.25;3.05;;;18.30;85.40;;;;;;4811176;29;20044;-82
2021/04/06 10:48:13;;;;;;;8.70;2.80;;;18.40;85.30;;;;;;4808211;29;20446;-83
2021/04/06 10:50:45;;;;;;;6.47;2.70;;;18.40;85.10;;;;;;4811310;29;20483;-81
2021/04/06 10:53:16;;;;;;;10.70;3.15;;;18.50;85.40;;;;;;4811672;29;20041;-82
2021/04/06 10:55:47;;;;;;;9.02;3.13;;;18.60;85.30;;;;;;4819300;29;20096;-83
2021/04/06 10:58:25;;;;;;;6.82;2.60;;;18.90;84.50;;;;;;4819064;29;20425;-79
2021/04/06 11:00:59;;;;;;;6.63;2.33;;;19.00;84.10;;;;;;4804172;29;20069;-78
2021/04/06 11:03:43;;;;;;;8.45;3.05;;;19.20;83.90;;;;;;4817116;29;20050;-78
2021/04/06 11:06:19;;;;;;;9.82;3.15;;;19.40;83.20;;;;;;4813713;29;20500;-80
2021/04/06 11:08:50;;;;;;;7.72;2.72;;;19.30;82.90;;;;;;4808461;29;20054;-82
2021/04/06 11:11:20;;;;;;;8.60;2.67;;;19.30;82.90;;;;;;4808616;29;20527;-79
2021/04/06 11:13:49;;;;;;;6.55;2.60;;;19.50;83.10;;;;;;4819152;29;20049;-81
2021/04/06 11:16:17;;;;;;;6.13;2.83;;;19.90;82.20;;;;;;4814377;29;20505;-80
2021/04/06 11:18:58;;;;;;;6.40;2.72;;;20.00;81.50;;;;;;4812518;29;20522;-80
2021/04/06 11:21:26;;;;;;;7.78;3.15;;;20.10;80.50;;;;;;4810092;29;20464;-79
2021/04/06 11:23:54;;;;;;;8.70;3.05;;;20.10;81.90;;;;;;4822276;29;20046;-82
2021/04/06 11:26:22;;;;;;;8.38;2.72;;;20.10;81.40;;;;;;4825881;29;20046;-78
2021/04/06 11:28:50;;;;;;;8.38;2.95;;;20.00;80.40;;;;;;4816366;29;20099;-78
2021/04/06 11:31:19;;;;;;;7.07;3.00;;;20.00;80.50;;;;;;4810051;29;20525;-79
2021/04/06 11:33:47;;;;;;;7.65;2.67;;;20.20;79.80;;;;;;4808927;29;20054;-79
2021/04/06 11:36:15;;;;;;;6.75;2.80;;;20.20;79.10;;;;;;4812523;29;20046;-81
2021/04/06 11:38:44;;;;;;;8.27;2.50;;;20.40;79.60;;;;;;4815494;29;20504;-79
2021/04/06 11:41:17;;;;;;;7.78;3.22;;;20.90;78.60;;;;;;4812462;29;20141;-81
2021/04/06 11:43:45;;;;;;;4.10;2.65;;;21.20;78.50;;;;;;4815738;29;20046;-80
2021/04/06 11:46:13;;;;;;;11.27;3.10;;;20.90;78.00;;;;;;4808853;29;20050;-79
2021/04/06 11:48:46;;;;;;;7.28;2.47;;;20.40;78.80;;;;;;4818696;29;20039;-78
2021/04/06 11:51:16;;;;;;;6.78;1.42;;;19.80;78.50;;;;;;4810499;29;20077;-82
2021/04/06 11:53:46;;;;;;;3.92;1.35;;;18.80;77.00;;;;;;4809442;29;20545;-81
2021/04/06 11:56:14;;;;;;;5.55;1.10;;;18.10;77.70;;;;;;4815693;29;20137;-83
2021/04/06 11:58:41;;;;;;;1.98;0.80;;;17.50;77.70;;;;;;4810876;29;20042;-84
2021/04/06 12:01:26;;;;;;;1.17;0.80;;;17.00;78.80;;;;;;4812135;29;20125;-83
2021/04/06 12:03:54;;;;;;;6.28;3.03;;;16.60;79.30;;;;;;4810220;29;20119;-82
2021/04/06 12:06:22;;;;;;;3.00;1.42;;;16.30;79.90;;;;;;4817080;29;20139;-82
2021/04/06 12:08:50;;;;;;;11.82;1.50;;;16.20;81.10;;;;;;4811302;29;20471;-84
2021/04/06 12:11:18;;;;;;;6.13;1.45;;;16.20;82.90;;;;;;4810379;29;20501;-85
2021/04/06 12:13:46;;;;;;;4.43;0.55;;;15.90;86.00;;;;;;4811202;29;20038;-85
2021/04/06 12:16:14;;;;;;;6.68;1.10;;;15.70;88.50;;;;;;4814433;29;20093;-81
2021/04/06 12:18:42;;;;;;;1.42;0.73;;;15.60;90.70;;;;;;4810354;29;20047;-80
2021/04/06 12:21:11;;;;;;;8.63;1.20;;;15.50;92.70;;;;;;4813025;29;20510;-83
2021/04/06 12:23:40;;;;;;;4.35;0.90;;;15.40;93.90;;;;;;4811695;29;20047;-94
2021/04/06 12:26:09;;;;;;;0.93;0.30;;;15.10;94.10;;;;;;4821666;29;20055;-89
2021/04/06 12:28:36;;;;;;;0.70;0.20;;;14.40;94.40;;;;;;4825591;29;20465;-82
2021/04/06 12:31:05;;;;;;;1.30;0.20;;;14.10;95.70;;;;;;4832743;29;20093;-89
2021/04/06 12:33:33;;;;;;;0.80;0.15;;;13.90;94.60;;;;;;4810666;29;20046;-84
2021/04/06 12:36:02;;;;;;;2.30;0.10;;;13.50;94.50;;;;;;4813680;29;20340;-85
2021/04/06 12:38:30;;;;;;;0.20;0.10;;;13.20;94.30;;;;;;4809183;29;20074;-84
2021/04/06 12:40:58;;;;;;;0.40;0.20;;;13.10;94.60;;;;;;4810528;29;20130;-82
2021/04/06 12:43:26;;;;;;;3.25;0.10;;;12.90;95.20;;;;;;4829285;29;20053;-84
2021/04/06 12:45:54;;;;;;;0.52;0.15;;;13.00;95.60;;;;;;4809799;29;20386;-80
2021/04/06 12:48:21;;;;;;;0.60;0.20;;;12.90;96.70;;;;;;4812015;29;20393;-80
2021/04/06 12:50:49;;;;;;;1.58;0.30;;;13.00;96.70;;;;;;4819741;29;20046;-83
2021/04/06 12:53:16;;;;;;;0.20;0.10;;;13.20;96.70;;;;;;4809365;29;20479;-78
2021/04/06 12:55:44;;;;;;;1.67;0.30;;;13.50;96.70;;;;;;4799191;29;20054;-83
2021/04/06 12:58:13;;;;;;;0.90;0.40;;;13.20;96.20;;;;;;4813681;29;20055;-82
2021/04/06 13:00:42;;;;;;;1.02;0.40;;;13.20;96.70;;;;;;4815524;29;20042;-85
2021/04/06 13:03:09;;;;;;;1.05;0.30;;;13.30;96.70;;;;;;4809921;29;20133;-84
2021/04/06 13:05:37;;;;;;;0.43;0.22;;;13.10;96.70;;;;;;4818824;29;20057;-84